AirNav   Phillips 66 Aviation Fuel
 
 349 users online  

0MN3 Lower Hay Lake Seaplane Base
Jenkins, Minnesota, USA

GOING TO JENKINS?


FAA INFORMATION EFFECTIVE 20 JULY 2017

Location

FAA Identifier: 0MN3
Lat/Long: 46-40-40.0000N / 094-17-33.0000W
46-40.666667N / 094-17.550000W
46.6777778 / -94.2925000
(estimated)
Elevation: 1230 ft. / 375 m (estimated)
Variation: 03E (1995)
From city: 3 miles NE of JENKINS, MN
Time zone: UTC -5 (UTC -6 during Standard Time)
Zip code: 56474

Seaplane Base Operations

Seaplane Base use: Private use. Permission required prior to landing
Activation date: 02/1999
Control tower: no
ARTCC: MINNEAPOLIS CENTER
FSS: PRINCETON FLIGHT SERVICE STATION
Attendance: MAY-SEP SR-SS
Segmented circle: no

Seaplane Base Communications

WX AWOS-3 at PWC (5 nm NW): 118.525 (218-587-3420)
WX ASOS at BRD (18 nm S): 126.775 (218-828-3314)
WX AWOS-3 at XVG (19 nm N): 118.275 (218-363-3347)

Nearby radio navigation aids

VOR radial/distance  VOR name  Freq  Var
BRDr328/22.6BRAINERD VORTAC116.9003E
PKDr108/34.6PARK RAPIDS VOR/DME110.6004E

 
NDB name  Hdg/Dist  Freq  Var  ID
PINE RIVER125/4.833003EPWC .--. .-- -.-.
LONGVILLE187/19.339204EXVG -..- ...- --.
AITKIN287/26.639700EAIT .- .. -
STAPLES049/27.625701ESAZ ... .- --..
RIPLEY000/36.040403EXCR -..- -.-. .-.

Seaplane Base Services

Fuel available: 100LL

Runway Information

Runway 6/24

Dimensions: 5000 x 100 ft. / 1524 x 30 m
Surface: water
RUNWAY 6  RUNWAY 24
Traffic pattern: leftleft
Obstructions: 50 ft. trees, 1000 ft. from runway50 ft. trees, 1000 ft. from runway

Runway 15/33

Dimensions: 5000 x 100 ft. / 1524 x 30 m
Surface: water
RUNWAY 15  RUNWAY 33
Traffic pattern: leftleft
Obstructions: 50 ft. trees, 1000 ft. from runway50 ft. trees, 1000 ft. from runway

Seaplane Base Ownership and Management from official FAA records

Ownership: Privately-owned
Owner: PAUL K. SCHROEDER
36261 SPRUCE TRAIL
PINE RIVER, MN 56474
Phone 218-568-4134
Manager: PAUL K. SCHROEDER
36261 SPRUCE TRAIL
PINE RIVER, MN 56474
Phone 218-568-4134

Seaplane Base Operational Statistics

Aircraft based on the field: 2
Single engine airplanes: 2
    

Instrument Procedures

There are no published instrument procedures at 0MN3.

Some nearby airports with instrument procedures:

KPWC - Pine River Regional Airport (5 nm NW)
KBRD - Brainerd Lakes Regional Airport (18 nm S)
KXVG - Longville Municipal Airport (19 nm N)
KAIT - Aitkin Municipal Airport-Steve Kurtz Field (27 nm E)
KSAZ - Staples Municipal Airport (28 nm SW)
 
Loc | Ops | Rwys | IFR | FBO | Links
Com | Nav | Svcs | Stats | Notes


 
Area around 0MN3 (Lower Hay Lake Seaplane Base)
 
Road maps at: MapQuest Bing Google
 
Aerial photo
No photo
 
Sectional chart

 
Airport distance calculator
Flying to Lower Hay Lake Seaplane Base? Find the distance to fly.

From to 0MN3

Sunrise and sunset
Times for 28-Jul-2017
 Local
(UTC-5)
 Zulu
(UTC)
Morning civil twilight05:1810:18
Sunrise05:5410:54
Sunset20:5401:54
Evening civil twilight21:2902:29

Current date and time
Zulu (UTC)  28-Jul-2017 07:05:23
Local (UTC-5)  28-Jul-2017 02:05:23
 
METAR
KPWC 
4nm NW 
280653Z AUTO 00000KT 7SM CLR 14/14 A3013 RMK AO2
KBRD 
18nm S 
280653Z AUTO 00000KT 4SM BR CLR 16/16 A3009 RMK AO2 SLP185 T01610161
KXVG 
19nm N 
280656Z AUTO 00000KT 1 1/2SM BR VV007 14/14 A3010 RMK AO2
TAF
KBRD 
18nm S 
280520Z 2806/2906 00000KT 6SM BR SKC TEMPO 2806/2810 2SM BR FM281600 18005KT P6SM SCT050
NOTAMs
Click for the latest NOTAMs
NOTAMs are issued by the DoD/FAA and will open in a separate window not controlled by AirNav.

 

 
 

Would you like to see your business listed on this page?

 If your business provides an interesting product or service to pilots, flight crews, aircraft, or users of the Lower Hay Lake Seaplane Base, you should consider listing it here.  To start the listing process, click on the button below
 
Add a business
 

Other Pages about Lower Hay Lake Seaplane Base

Update a link
 
Copyright © AirNav, LLC. All rights reserved. Privacy Policy  Contact